createdAt,value
2022-12-13T00:01:47.719Z,97592.13
2022-12-13T00:04:16.475Z,97597.50
2022-12-13T00:06:45.247Z,97586.78
2022-12-13T00:09:15.083Z,97599.16
2022-12-13T00:11:43.591Z,97594.44
2022-12-13T00:14:14.342Z,97597.13
2022-12-13T00:16:48.839Z,97584.34
2022-12-13T00:19:18.126Z,97587.03
2022-12-13T00:21:47.223Z,97593.22
2022-12-13T00:24:16.185Z,97597.75
2022-12-13T00:26:44.662Z,97602.09
2022-12-13T00:29:13.492Z,97594.03
2022-12-13T00:32:00.866Z,97598.38
2022-12-13T00:34:30.148Z,97607.47
2022-12-13T00:36:59.718Z,97604.78
2022-12-13T00:39:28.571Z,97611.81
2022-12-13T00:41:57.098Z,97611.81
2022-12-13T00:44:25.562Z,97617.00
2022-12-13T00:46:55.380Z,97620.91
2022-12-13T00:49:23.919Z,97617.38
2022-12-13T00:51:52.326Z,97623.56
2022-12-13T00:54:20.783Z,97626.25
2022-12-13T00:56:51.314Z,97633.28
2022-12-13T00:59:19.828Z,97632.47
2022-12-13T01:01:48.450Z,97635.97
2022-12-13T01:04:18.406Z,97627.09
2022-12-13T01:06:49.908Z,97625.44
2022-12-13T01:09:20.237Z,97624.63
2022-12-13T01:11:49.047Z,97633.50
2022-12-13T01:14:17.751Z,97629.13
2022-12-13T01:16:46.375Z,97639.69
2022-12-13T01:19:14.851Z,97628.31
2022-12-13T01:21:44.711Z,97631.81
2022-12-13T01:24:13.415Z,97627.47
2022-12-13T01:26:41.965Z,97630.97
2022-12-13T01:29:11.579Z,97640.72
2022-12-13T01:31:41.889Z,97633.66
2022-12-13T01:34:11.502Z,97640.06
2022-12-13T01:36:40.242Z,97638.22
2022-12-13T01:39:15.044Z,97634.72
2022-12-13T01:41:45.530Z,97632.03
2022-12-13T01:45:12.652Z,97627.66
2022-12-13T01:47:43.735Z,97635.72
2022-12-13T01:50:15.025Z,97635.72
2022-12-13T01:52:43.662Z,97633.03
2022-12-13T01:55:13.881Z,97625.81
2022-12-13T01:57:45.674Z,97638.22
2022-12-13T02:00:16.085Z,97634.72
2022-12-13T02:02:44.645Z,97632.03
2022-12-13T02:05:16.700Z,97639.03
2022-12-13T02:07:45.385Z,97631.19
2022-12-13T02:10:15.259Z,97634.72
2022-12-13T02:12:43.792Z,97640.06
2022-12-13T02:15:14.849Z,97639.03
2022-12-13T02:18:06.174Z,97639.25
2022-12-13T02:21:01.902Z,97645.44
2022-12-13T02:24:08.944Z,97635.72
2022-12-13T02:27:02.994Z,97647.47
2022-12-13T02:30:20.880Z,97642.13
2022-12-13T02:33:35.559Z,97649.13
2022-12-13T02:36:10.096Z,97650.16
2022-12-13T02:38:45.978Z,97646.66
2022-12-13T02:41:18.519Z,97646.44
2022-12-13T02:43:50.225Z,97647.31
2022-12-13T02:46:22.649Z,97643.75
2022-12-13T02:48:52.589Z,97640.25
2022-12-13T02:51:21.098Z,97639.44
2022-12-13T02:53:49.645Z,97641.06
2022-12-13T02:56:18.600Z,97644.78
2022-12-13T02:58:50.271Z,97654.50
2022-12-13T03:01:41.290Z,97654.50
2022-12-13T03:04:14.668Z,97645.63
2022-12-13T03:06:51.994Z,97653.69
2022-12-13T03:09:33.343Z,97655.53
2022-12-13T03:12:32.755Z,97649.13
2022-12-13T03:15:04.479Z,97649.34
2022-12-13T03:17:38.688Z,97645.63
2022-12-13T03:20:12.620Z,97647.47
2022-12-13T03:22:52.312Z,97657.41
2022-12-13T03:25:31.993Z,97656.56
2022-12-13T03:28:02.647Z,97660.91
2022-12-13T03:30:31.868Z,97664.63
2022-12-13T03:33:02.002Z,97660.09
2022-12-13T03:35:34.740Z,97664.63
2022-12-13T03:38:13.218Z,97668.13
2022-12-13T03:40:53.468Z,97666.28
2022-12-13T03:43:22.986Z,97670.81
2022-12-13T03:45:52.558Z,97673.50
2022-12-13T03:48:23.594Z,97675.38
2022-12-13T03:50:53.433Z,97670.00
2022-12-13T03:53:33.213Z,97667.31
2022-12-13T03:56:03.741Z,97673.50
2022-12-13T03:58:35.796Z,97670.00
2022-12-13T04:01:07.328Z,97674.53
2022-12-13T04:03:37.651Z,97670.81
2022-12-13T04:06:07.131Z,97678.88
2022-12-13T04:08:35.801Z,97678.88
2022-12-13T04:11:25.749Z,97679.69
2022-12-13T04:13:53.457Z,97679.53
2022-12-13T04:16:22.104Z,97683.41
2022-12-13T04:18:51.956Z,97683.41
2022-12-13T04:21:20.503Z,97688.78
2022-12-13T04:23:48.902Z,97681.56
2022-12-13T04:26:17.307Z,97678.03
2022-12-13T04:28:50.844Z,97683.41
2022-12-13T04:31:22.617Z,97683.41
2022-12-13T04:33:52.561Z,97687.09
2022-12-13T04:36:31.572Z,97679.91
2022-12-13T04:39:02.416Z,97684.41
2022-12-13T04:41:34.486Z,97684.41
2022-12-13T04:44:03.524Z,97687.97
2022-12-13T04:46:32.048Z,97679.06
2022-12-13T04:49:01.929Z,97675.53
2022-12-13T04:51:31.380Z,97681.72
2022-12-13T04:54:23.693Z,97688.97
2022-12-13T04:56:48.275Z,97682.75
2022-12-13T04:59:16.830Z,97688.13
2022-12-13T05:01:45.341Z,97682.75
2022-12-13T05:04:15.273Z,97688.97
2022-12-13T05:06:43.830Z,97689.78
2022-12-13T05:09:12.309Z,97691.66
2022-12-13T05:11:45.921Z,97692.69
2022-12-13T05:14:14.794Z,97694.34
2022-12-13T05:16:53.401Z,97694.34
2022-12-13T05:19:31.595Z,97688.97
2022-12-13T05:22:01.540Z,97693.50
2022-12-13T05:24:31.928Z,97685.44
2022-12-13T05:27:00.610Z,97698.88
2022-12-13T05:29:29.241Z,97691.84
2022-12-13T05:31:57.840Z,97698.88
2022-12-13T05:34:28.146Z,97690.81
2022-12-13T05:36:56.553Z,97682.75
2022-12-13T05:39:28.888Z,97695.38
2022-12-13T05:42:02.073Z,97694.53
2022-12-13T05:44:32.508Z,97694.53
2022-12-13T05:47:02.430Z,97696.38
2022-12-13T05:49:33.170Z,97690.16
2022-12-13T05:52:01.752Z,97682.94
2022-12-13T05:54:30.283Z,97691.84
2022-12-13T05:56:58.822Z,97697.22
2022-12-13T05:59:27.435Z,97693.69
2022-12-13T06:01:55.958Z,97693.88
2022-12-13T06:04:24.424Z,97694.53
2022-12-13T06:06:54.450Z,97698.59
2022-12-13T06:09:23.076Z,97705.44
2022-12-13T06:11:51.635Z,97707.09
2022-12-13T06:14:29.448Z,97700.09
2022-12-13T06:16:57.996Z,97699.91
2022-12-13T06:19:26.671Z,97705.91
2022-12-13T06:21:56.715Z,97706.28
2022-12-13T06:24:25.314Z,97717.41
2022-12-13T06:26:53.962Z,97714.16
2022-12-13T06:29:25.458Z,97711.09
2022-12-13T06:32:02.275Z,97710.88
2022-12-13T06:34:34.030Z,97726.63
2022-12-13T06:37:06.158Z,97723.56
2022-12-13T06:39:34.796Z,97720.88
2022-12-13T06:42:06.321Z,97728.28
2022-12-13T06:44:35.259Z,97722.84
2022-12-13T06:47:11.473Z,97724.91
2022-12-13T06:49:43.626Z,97734.16
2022-12-13T06:52:14.997Z,97733.69
2022-12-13T06:54:43.877Z,97737.00
2022-12-13T06:57:12.898Z,97734.16
2022-12-13T06:59:41.936Z,97744.69
2022-12-13T07:02:24.773Z,97747.56
2022-12-13T07:04:55.555Z,97736.00
2022-12-13T07:07:25.963Z,97742.59
2022-12-13T07:09:54.696Z,97756.63
2022-12-13T07:12:23.280Z,97758.31
2022-12-13T07:14:52.056Z,97756.84
2022-12-13T07:17:32.660Z,97760.72
2022-12-13T07:20:02.867Z,97765.06
2022-12-13T07:22:34.675Z,97763.03
2022-12-13T07:25:06.006Z,97766.38
2022-12-13T07:27:34.818Z,97769.06
2022-12-13T07:30:03.818Z,97763.69
2022-12-13T07:32:32.350Z,97768.03
2022-12-13T07:35:00.962Z,97770.72
2022-12-13T07:37:31.054Z,97779.41
2022-12-13T07:40:04.469Z,97767.03
2022-12-13T07:42:34.025Z,97780.44
2022-12-13T07:45:02.615Z,97783.13
2022-12-13T07:47:32.651Z,97783.13
2022-12-13T07:50:01.570Z,97787.66
2022-12-13T07:52:30.645Z,97783.13
2022-12-13T07:54:59.199Z,97790.31
2022-12-13T07:57:29.135Z,97793.88
2022-12-13T07:59:58.287Z,97782.28
2022-12-13T08:02:26.825Z,97786.81
2022-12-13T08:04:55.625Z,97790.53
2022-12-13T08:07:24.399Z,97793.88
2022-12-13T08:09:53.423Z,97792.19
2022-12-13T08:12:22.548Z,97792.00
2022-12-13T08:14:53.591Z,97784.13
2022-12-13T08:17:23.275Z,97797.56
2022-12-13T08:19:51.762Z,97793.88
2022-12-13T08:22:24.301Z,97794.03
2022-12-13T08:24:53.266Z,97797.00
2022-12-13T08:27:21.887Z,97798.03
2022-12-13T08:29:50.401Z,97796.19
2022-12-13T08:32:20.521Z,97801.53
2022-12-13T08:34:49.323Z,97798.03
2022-12-13T08:37:18.118Z,97806.25
2022-12-13T08:39:46.803Z,97802.38
2022-12-13T08:42:19.261Z,97811.25
2022-12-13T08:44:49.646Z,97815.34
2022-12-13T08:47:23.249Z,97808.28
2022-12-13T08:50:01.425Z,97824.88
2022-12-13T08:52:40.545Z,97818.66
2022-12-13T08:55:11.382Z,97812.91
2022-12-13T08:57:40.154Z,97819.13
2022-12-13T09:00:11.368Z,97814.59
2022-12-13T09:02:41.582Z,97821.63
2022-12-13T09:05:10.934Z,97824.13
2022-12-13T09:07:41.244Z,97824.13
2022-12-13T09:10:28.748Z,97821.44
2022-12-13T09:13:02.405Z,97819.59
2022-12-13T09:15:34.270Z,97824.97
2022-12-13T09:18:05.715Z,97834.66
2022-12-13T09:20:41.312Z,97822.94
2022-12-13T09:23:13.884Z,97821.06
2022-12-13T09:26:05.998Z,97814.88
2022-12-13T09:28:35.279Z,97813.84
2022-12-13T09:31:08.152Z,97819.88
2022-12-13T09:36:12.653Z,97816.34
2022-12-13T09:38:41.280Z,97818.22
2022-12-13T09:41:20.224Z,97821.72
2022-12-13T09:43:50.768Z,97825.22
2022-12-13T09:46:34.298Z,97824.03
2022-12-13T09:54:48.221Z,97822.16
2022-12-13T09:57:30.665Z,97825.03
2022-12-13T10:00:02.899Z,97828.19
2022-12-13T10:07:52.395Z,97824.50
2022-12-13T10:10:21.301Z,97825.41
2022-12-13T10:12:53.896Z,97825.88
2022-12-13T10:15:23.432Z,97828.38
2022-12-13T10:17:55.131Z,97817.44
2022-12-13T10:20:29.006Z,97815.59
2022-12-13T10:25:51.987Z,97803.66
2022-12-13T10:28:26.621Z,97818.09
2022-12-13T10:30:55.410Z,97813.56
2022-12-13T10:33:26.358Z,97809.00
2022-12-13T10:36:09.148Z,97807.38
2022-12-13T10:38:39.505Z,97814.56
2022-12-13T10:41:31.272Z,97806.50
2022-12-13T10:44:16.121Z,97808.19
2022-12-13T10:46:50.216Z,97812.34
2022-12-13T10:49:20.034Z,97806.31
2022-12-13T10:51:50.515Z,97804.28
2022-12-13T10:54:25.467Z,97797.44
2022-12-13T10:57:00.228Z,97803.19
2022-12-13T10:59:35.166Z,97809.00
2022-12-13T11:02:04.478Z,97805.28
2022-12-13T11:04:34.150Z,97804.28
2022-12-13T11:07:23.919Z,97803.00
2022-12-13T11:09:53.181Z,97790.38
2022-12-13T11:12:23.402Z,97792.91
2022-12-13T11:14:55.089Z,97794.09
2022-12-13T11:17:25.453Z,97805.28
2022-12-13T11:19:55.086Z,97797.63
2022-12-13T11:22:27.087Z,97802.00
2022-12-13T11:24:59.869Z,97794.09
2022-12-13T11:27:56.419Z,97794.56
2022-12-13T11:30:27.388Z,97781.34
2022-12-13T11:33:17.588Z,97780.50
2022-12-13T11:35:58.912Z,97788.28
2022-12-13T11:38:33.810Z,97779.88
2022-12-13T11:41:07.563Z,97785.59
2022-12-13T11:43:39.083Z,97776.97
2022-12-13T11:46:15.094Z,97784.03
2022-12-13T11:48:46.887Z,97772.44
2022-12-13T11:51:18.945Z,97786.31
2022-12-13T11:53:55.041Z,97787.16
2022-12-13T11:56:26.936Z,97781.34
2022-12-13T11:59:04.244Z,97786.88
2022-12-13T12:01:38.415Z,97787.91
2022-12-13T12:04:15.656Z,97787.09
2022-12-13T12:06:47.383Z,97790.59
2022-12-13T12:09:19.007Z,97786.22
2022-12-13T12:11:52.340Z,97787.91
2022-12-13T12:14:24.398Z,97787.91
2022-12-13T12:16:53.741Z,97788.75
2022-12-13T12:19:24.438Z,97791.44
2022-12-13T12:22:16.241Z,97790.31
2022-12-13T12:24:58.453Z,97783.31
2022-12-13T12:27:36.915Z,97784.94
2022-12-13T12:30:22.836Z,97785.97
2022-12-13T12:32:58.273Z,97782.06
2022-12-13T12:36:08.076Z,97773.75
2022-12-13T12:39:20.340Z,97776.25
2022-12-13T12:42:11.900Z,97784.13
2022-12-13T12:44:45.218Z,97794.03
2022-12-13T12:47:49.085Z,97788.66
2022-12-13T12:50:32.663Z,97787.81
2022-12-13T12:53:12.906Z,97792.34
2022-12-13T12:55:53.829Z,97786.16
2022-12-13T12:58:32.327Z,97778.94
2022-12-13T13:01:12.691Z,97789.66
2022-12-13T13:03:42.718Z,97787.81
2022-12-13T13:06:13.371Z,97786.34
2022-12-13T13:08:44.399Z,97794.38
2022-12-13T13:11:24.021Z,97790.69
2022-12-13T13:14:06.837Z,97796.91
2022-12-13T13:16:38.694Z,97796.44
2022-12-13T13:19:07.361Z,97800.13
2022-12-13T13:21:47.283Z,97808.69
2022-12-13T13:24:21.831Z,97799.75
2022-12-13T13:26:52.414Z,97804.13
2022-12-13T13:29:32.464Z,97792.56
2022-12-13T13:32:03.200Z,97799.75
2022-12-13T13:34:33.075Z,97800.63
2022-12-13T13:37:02.299Z,97797.94
2022-12-13T13:40:02.079Z,97802.44
2022-12-13T13:42:31.111Z,97799.75
2022-12-13T13:45:20.330Z,97799.75
2022-12-13T13:48:14.656Z,97798.09
2022-12-13T13:51:20.283Z,97803.66
2022-12-13T13:54:06.983Z,97800.78
2022-12-13T13:58:07.625Z,97810.06
2022-12-13T14:00:24.375Z,97805.50
2022-12-13T14:03:41.932Z,97811.25
2022-12-13T14:07:08.623Z,97812.47
2022-12-13T14:10:23.694Z,97817.00
2022-12-13T14:13:45.133Z,97817.00
2022-12-13T14:16:52.947Z,97822.38
2022-12-13T14:20:08.572Z,97829.59
2022-12-13T14:22:39.637Z,97824.22
2022-12-13T14:25:52.177Z,97833.28
2022-12-13T14:28:45.937Z,97829.59
2022-12-13T14:31:21.592Z,97828.78
2022-12-13T14:33:53.148Z,97829.78
2022-12-13T14:36:29.093Z,97827.91
2022-12-13T14:39:02.376Z,97835.13
2022-12-13T14:41:30.995Z,97832.06
2022-12-13T14:44:17.722Z,97832.94
2022-12-13T14:46:51.913Z,97832.72
2022-12-13T14:49:22.370Z,97830.50
2022-12-13T14:51:53.770Z,97834.16
2022-12-13T14:54:26.113Z,97835.13
2022-12-13T14:56:59.419Z,97842.66
2022-12-13T14:59:28.177Z,97843.47
2022-12-13T15:01:59.024Z,97848.84
2022-12-13T15:04:31.364Z,97852.56
2022-12-13T15:07:06.643Z,97849.03
2022-12-13T15:09:38.394Z,97857.09
2022-12-13T15:12:23.871Z,97848.00
2022-12-13T15:14:59.797Z,97857.72
2022-12-13T15:17:34.119Z,97851.81
2022-12-13T15:20:12.314Z,97855.53
2022-12-13T15:22:40.799Z,97857.28
2022-12-13T15:25:13.876Z,97859.59
2022-12-13T15:27:42.503Z,97853.84
2022-12-13T15:30:17.525Z,97862.72
2022-12-13T15:33:04.096Z,97855.88
2022-12-13T15:35:34.073Z,97863.31
2022-12-13T15:38:02.822Z,97873.84
2022-12-13T15:40:31.353Z,97871.34
2022-12-13T15:43:00.085Z,97858.94
2022-12-13T15:45:34.946Z,97872.34
2022-12-13T15:48:05.784Z,97872.34
2022-12-13T15:50:37.600Z,97865.78
2022-12-13T15:53:08.324Z,97861.44
2022-12-13T15:55:37.834Z,97862.63
2022-12-13T15:58:25.794Z,97858.75
2022-12-13T16:00:54.610Z,97863.31
2022-12-13T16:03:24.721Z,97862.25
2022-12-13T16:05:55.999Z,97866.59
2022-12-13T16:08:29.479Z,97861.44
2022-12-13T16:10:58.324Z,97864.13
2022-12-13T16:13:28.056Z,97861.63
2022-12-13T16:16:00.221Z,97866.81
2022-12-13T16:18:44.872Z,97862.47
2022-12-13T16:21:15.348Z,97862.81
2022-12-13T16:23:48.483Z,97863.47
2022-12-13T16:26:23.119Z,97859.97
2022-12-13T16:28:51.770Z,97854.59
2022-12-13T16:31:22.176Z,97859.41
2022-12-13T16:33:50.965Z,97858.94
2022-12-13T16:36:20.980Z,97861.06
2022-12-13T16:38:49.656Z,97861.44
2022-12-13T16:41:18.139Z,97856.34
2022-12-13T16:43:53.069Z,97859.22
2022-12-13T16:47:13.098Z,97870.31
2022-12-13T16:49:22.809Z,97866.59
2022-12-13T16:51:52.672Z,97867.63
2022-12-13T16:54:22.038Z,97862.47
2022-12-13T16:56:50.691Z,97860.25
2022-12-13T16:59:22.481Z,97860.03
2022-12-13T17:01:51.503Z,97866.59
2022-12-13T17:04:22.530Z,97873.66
2022-12-13T17:06:54.938Z,97866.16
2022-12-13T17:09:24.468Z,97871.34
2022-12-13T17:11:53.024Z,97872.19
2022-12-13T17:14:21.595Z,97875.69
2022-12-13T17:16:50.111Z,97879.78
2022-12-13T17:19:18.839Z,97883.28
2022-12-13T17:21:47.501Z,97881.25
2022-12-13T17:24:17.450Z,97882.09
2022-12-13T17:26:54.005Z,97889.50
2022-12-13T17:29:25.020Z,97902.91
2022-12-13T17:31:53.736Z,97902.09
2022-12-13T17:34:22.350Z,97898.38
2022-12-13T17:36:50.863Z,97897.16
2022-12-13T17:39:21.527Z,97890.97
2022-12-13T17:41:55.510Z,97903.56
2022-12-13T17:44:25.658Z,97900.06
2022-12-13T17:46:55.611Z,97905.22
2022-12-13T17:49:24.877Z,97911.78
2022-12-13T17:51:54.449Z,97909.94
2022-12-13T17:54:25.374Z,97906.06
2022-12-13T17:56:54.550Z,97910.31
2022-12-13T17:59:23.193Z,97907.25
2022-12-13T18:01:51.999Z,97908.13
2022-12-13T18:04:20.920Z,97909.78
2022-12-13T18:06:49.484Z,97904.56
2022-12-13T18:09:18.035Z,97911.78
2022-12-13T18:11:48.019Z,97896.72
2022-12-13T18:14:16.546Z,97907.47
2022-12-13T18:16:45.079Z,97903.75
2022-12-13T18:19:15.005Z,97903.75
2022-12-13T18:21:44.379Z,97917.16
2022-12-13T18:24:13.231Z,97909.13
2022-12-13T18:26:41.855Z,97913.28
2022-12-13T18:29:11.747Z,97910.59
2022-12-13T18:31:41.164Z,97911.34
2022-12-13T18:34:10.057Z,97912.47
2022-12-13T18:36:39.660Z,97912.47
2022-12-13T18:39:08.118Z,97914.94
2022-12-13T18:41:36.686Z,97920.97
2022-12-13T18:44:08.056Z,97912.47
2022-12-13T18:46:39.787Z,97925.69
2022-12-13T18:49:11.928Z,97911.25
2022-12-13T18:51:40.461Z,97918.66
2022-12-13T18:54:08.984Z,97915.13
2022-12-13T18:56:37.550Z,97907.47
2022-12-13T18:59:06.206Z,97909.31
2022-12-13T19:01:35.797Z,97912.63
2022-12-13T19:04:05.989Z,97913.28
2022-12-13T19:06:34.945Z,97910.59
2022-12-13T19:09:03.454Z,97910.78
2022-12-13T19:11:32.012Z,97902.09
2022-12-13T19:14:00.732Z,97904.13
2022-12-13T19:16:29.606Z,97900.78
2022-12-13T19:18:58.812Z,97904.13
2022-12-13T19:21:28.894Z,97906.81
2022-12-13T19:23:58.773Z,97895.69
2022-12-13T19:26:28.237Z,97900.22
2022-12-13T19:28:57.486Z,97905.44
2022-12-13T19:31:31.063Z,97899.19
2022-12-13T19:34:01.993Z,97903.56
2022-12-13T19:36:33.724Z,97900.88
2022-12-13T19:39:02.335Z,97902.66
2022-12-13T19:41:32.328Z,97908.38
2022-12-13T19:44:04.679Z,97897.81
2022-12-13T19:46:33.713Z,97915.13
2022-12-13T19:49:02.397Z,97915.97
2022-12-13T19:51:39.066Z,97917.81
2022-12-13T19:54:08.351Z,97923.19
2022-12-13T19:56:36.920Z,97915.50
2022-12-13T19:59:05.463Z,97928.72
2022-12-13T20:01:34.170Z,97919.84
2022-12-13T20:04:03.025Z,97922.06
2022-12-13T20:06:33.084Z,97927.25
2022-12-13T20:09:01.962Z,97927.25
2022-12-13T20:11:31.472Z,97918.38
2022-12-13T20:14:00.060Z,97915.69
2022-12-13T20:16:29.084Z,97911.13
2022-12-13T20:18:58.368Z,97921.41
2022-12-13T20:21:27.322Z,97926.06
2022-12-13T20:23:57.806Z,97926.06
2022-12-13T20:26:28.147Z,97920.69
2022-12-13T20:28:57.526Z,97926.06
2022-12-13T20:31:29.122Z,97921.06
2022-12-13T20:33:57.968Z,97922.53
2022-12-13T20:36:28.762Z,97926.72
2022-12-13T20:38:59.869Z,97934.97
2022-12-13T20:41:29.694Z,97927.72
2022-12-13T20:43:59.736Z,97931.41
2022-12-13T20:46:28.857Z,97929.59
2022-12-13T20:48:58.920Z,97927.72
2022-12-13T20:51:28.618Z,97926.72
2022-12-13T20:53:58.707Z,97921.34
2022-12-13T20:56:28.779Z,97919.31
2022-12-13T20:58:57.276Z,97913.13
2022-12-13T21:01:27.314Z,97921.16
2022-12-13T21:03:56.439Z,97918.66
2022-12-13T21:06:24.920Z,97918.66
2022-12-13T21:08:54.670Z,97915.78
2022-12-13T21:11:26.524Z,97912.09
2022-12-13T21:14:06.910Z,97917.44
2022-12-13T21:16:38.726Z,97915.59
2022-12-13T21:19:07.474Z,97911.25
2022-12-13T21:21:36.114Z,97906.06
2022-12-13T21:24:04.754Z,97905.59
2022-12-13T21:26:35.946Z,97904.94
2022-12-13T21:29:07.580Z,97908.66
2022-12-13T21:31:36.828Z,97895.41
2022-12-13T21:34:06.549Z,97904.28
2022-12-13T21:36:36.165Z,97906.50
2022-12-13T21:39:08.073Z,97905.31
2022-12-13T21:41:38.068Z,97913.38
2022-12-13T21:44:06.784Z,97909.84
2022-12-13T21:47:10.350Z,97908.81
2022-12-13T21:49:24.044Z,97912.34
2022-12-13T21:51:52.783Z,97910.69
2022-12-13T21:54:22.002Z,97912.72
2022-12-13T21:57:09.338Z,97915.69
2022-12-13T21:59:37.892Z,97905.78
2022-12-13T22:02:14.805Z,97916.34
2022-12-13T22:04:44.681Z,97908.94
2022-12-13T22:07:14.544Z,97901.72
2022-12-13T22:09:43.152Z,97900.88
2022-12-13T22:12:20.717Z,97902.75
2022-12-13T22:14:49.513Z,97891.81
2022-12-13T22:17:18.313Z,97888.28
2022-12-13T22:19:48.786Z,97890.16
2022-12-13T22:22:19.405Z,97892.63
2022-12-13T22:24:53.217Z,97887.47
2022-12-13T22:27:25.750Z,97883.75
2022-12-13T22:29:56.129Z,97896.16
2022-12-13T22:32:24.877Z,97898.00
2022-12-13T22:34:53.454Z,97891.81
2022-12-13T22:37:21.994Z,97905.22
2022-12-13T22:39:50.933Z,97899.84
2022-12-13T22:42:19.462Z,97903.38
2022-12-13T22:44:49.351Z,97897.16
2022-12-13T22:47:18.173Z,97896.50
2022-12-13T22:49:48.548Z,97895.88
2022-12-13T22:52:18.090Z,97897.53
2022-12-13T22:54:46.599Z,97880.59
2022-12-13T22:57:15.103Z,97888.47
2022-12-13T22:59:43.811Z,97883.09
2022-12-13T23:02:13.782Z,97881.44
2022-12-13T23:04:42.389Z,97884.13
2022-12-13T23:07:10.940Z,97873.56
2022-12-13T23:09:39.506Z,97874.75
2022-12-13T23:12:25.840Z,97874.75
2022-12-13T23:14:54.589Z,97870.88
2022-12-13T23:17:24.399Z,97868.19
2022-12-13T23:19:53.313Z,97870.88
2022-12-13T23:22:23.367Z,97860.50
2022-12-13T23:24:51.995Z,97859.84
2022-12-13T23:27:21.860Z,97854.69
2022-12-13T23:29:50.984Z,97854.69
2022-12-13T23:32:19.552Z,97856.53
2022-12-13T23:34:49.499Z,97857.38
2022-12-13T23:37:18.194Z,97847.66
2022-12-13T23:39:46.676Z,97844.97
2022-12-13T23:42:15.316Z,97846.78
2022-12-13T23:44:43.992Z,97848.66
2022-12-13T23:47:12.455Z,97842.47
2022-12-13T23:49:40.919Z,97830.91
2022-12-13T23:52:11.275Z,97846.16
2022-12-13T23:54:39.727Z,97833.75
2022-12-13T23:57:08.358Z,97831.91
2022-12-13T23:59:37.068Z,97829.22
